sensor_id;sensor_type;location;lat;lon;timestamp;P1;durP1;ratioP1;P2;durP2;ratioP2
18104;SDS011;9179;50.968;3.134;2023-08-07T00:00:36;4.18;;;3.58;;
18104;SDS011;9179;50.968;3.134;2023-08-07T00:03:03;5.22;;;3.53;;
18104;SDS011;9179;50.968;3.134;2023-08-07T00:05:30;5.22;;;4.22;;
18104;SDS011;9179;50.968;3.134;2023-08-07T00:07:57;3.08;;;2.85;;
18104;SDS011;9179;50.968;3.134;2023-08-07T00:10:25;3.70;;;2.92;;
18104;SDS011;9179;50.968;3.134;2023-08-07T00:12:52;3.38;;;3.08;;
18104;SDS011;9179;50.968;3.134;2023-08-07T00:15:19;4.05;;;3.03;;
18104;SDS011;9179;50.968;3.134;2023-08-07T00:17:46;7.78;;;3.45;;
18104;SDS011;9179;50.968;3.134;2023-08-07T00:20:13;3.70;;;3.40;;
18104;SDS011;9179;50.968;3.134;2023-08-07T00:22:40;4.95;;;3.45;;
18104;SDS011;9179;50.968;3.134;2023-08-07T00:25:07;4.60;;;3.35;;
18104;SDS011;9179;50.968;3.134;2023-08-07T00:27:36;2.92;;;2.60;;
18104;SDS011;9179;50.968;3.134;2023-08-07T00:30:03;4.32;;;3.47;;
18104;SDS011;9179;50.968;3.134;2023-08-07T00:32:30;4.93;;;3.45;;
18104;SDS011;9179;50.968;3.134;2023-08-07T00:34:57;5.43;;;3.30;;
18104;SDS011;9179;50.968;3.134;2023-08-07T00:37:23;3.75;;;3.45;;
18104;SDS011;9179;50.968;3.134;2023-08-07T00:39:50;6.45;;;3.45;;
18104;SDS011;9179;50.968;3.134;2023-08-07T00:42:17;4.82;;;3.75;;
18104;SDS011;9179;50.968;3.134;2023-08-07T00:44:45;6.03;;;3.42;;
18104;SDS011;9179;50.968;3.134;2023-08-07T00:47:12;6.18;;;3.78;;
18104;SDS011;9179;50.968;3.134;2023-08-07T00:49:39;6.22;;;3.55;;
18104;SDS011;9179;50.968;3.134;2023-08-07T00:52:07;4.90;;;4.15;;
18104;SDS011;9179;50.968;3.134;2023-08-07T00:54:34;4.75;;;3.80;;
18104;SDS011;9179;50.968;3.134;2023-08-07T00:57:05;5.20;;;4.50;;
18104;SDS011;9179;50.968;3.134;2023-08-07T00:59:36;3.47;;;3.17;;
18104;SDS011;9179;50.968;3.134;2023-08-07T01:02:06;6.28;;;4.07;;
18104;SDS011;9179;50.968;3.134;2023-08-07T01:04:33;4.13;;;3.72;;
18104;SDS011;9179;50.968;3.134;2023-08-07T01:07:00;4.47;;;4.03;;
18104;SDS011;9179;50.968;3.134;2023-08-07T01:09:27;7.47;;;3.47;;
18104;SDS011;9179;50.968;3.134;2023-08-07T01:11:55;4.28;;;3.80;;
18104;SDS011;9179;50.968;3.134;2023-08-07T01:14:28;6.10;;;3.53;;
18104;SDS011;9179;50.968;3.134;2023-08-07T01:17:02;5.63;;;5.10;;
18104;SDS011;9179;50.968;3.134;2023-08-07T01:19:34;6.28;;;4.32;;
18104;SDS011;9179;50.968;3.134;2023-08-07T01:22:07;7.53;;;3.85;;
18104;SDS011;9179;50.968;3.134;2023-08-07T01:24:34;5.45;;;3.95;;
18104;SDS011;9179;50.968;3.134;2023-08-07T01:27:04;5.80;;;4.05;;
18104;SDS011;9179;50.968;3.134;2023-08-07T01:29:39;5.43;;;3.67;;
18104;SDS011;9179;50.968;3.134;2023-08-07T01:32:12;5.45;;;3.70;;
18104;SDS011;9179;50.968;3.134;2023-08-07T01:34:41;4.10;;;3.67;;
18104;SDS011;9179;50.968;3.134;2023-08-07T01:37:11;11.38;;;4.22;;
18104;SDS011;9179;50.968;3.134;2023-08-07T01:39:39;5.03;;;3.33;;
18104;SDS011;9179;50.968;3.134;2023-08-07T01:42:07;3.65;;;3.17;;
18104;SDS011;9179;50.968;3.134;2023-08-07T01:44:35;6.70;;;3.85;;
18104;SDS011;9179;50.968;3.134;2023-08-07T01:47:03;5.18;;;4.32;;
18104;SDS011;9179;50.968;3.134;2023-08-07T01:49:30;4.75;;;3.53;;
18104;SDS011;9179;50.968;3.134;2023-08-07T01:51:57;6.20;;;3.97;;
18104;SDS011;9179;50.968;3.134;2023-08-07T01:54:25;4.75;;;4.10;;
18104;SDS011;9179;50.968;3.134;2023-08-07T01:56:52;7.55;;;3.88;;
18104;SDS011;9179;50.968;3.134;2023-08-07T01:59:19;4.22;;;3.65;;
18104;SDS011;9179;50.968;3.134;2023-08-07T02:01:45;4.78;;;4.28;;
18104;SDS011;9179;50.968;3.134;2023-08-07T02:04:12;4.80;;;4.30;;
18104;SDS011;9179;50.968;3.134;2023-08-07T02:06:39;4.72;;;4.18;;
18104;SDS011;9179;50.968;3.134;2023-08-07T02:09:06;5.22;;;4.72;;
18104;SDS011;9179;50.968;3.134;2023-08-07T02:11:34;7.15;;;4.10;;
18104;SDS011;9179;50.968;3.134;2023-08-07T02:14:01;5.65;;;3.83;;
18104;SDS011;9179;50.968;3.134;2023-08-07T02:16:28;4.68;;;3.65;;
18104;SDS011;9179;50.968;3.134;2023-08-07T02:18:55;6.63;;;3.38;;
18104;SDS011;9179;50.968;3.134;2023-08-07T02:21:21;6.28;;;3.70;;
18104;SDS011;9179;50.968;3.134;2023-08-07T02:23:48;5.95;;;3.75;;
18104;SDS011;9179;50.968;3.134;2023-08-07T02:26:15;5.95;;;3.85;;
18104;SDS011;9179;50.968;3.134;2023-08-07T02:28:43;3.92;;;3.50;;
18104;SDS011;9179;50.968;3.134;2023-08-07T02:31:10;5.93;;;3.67;;
18104;SDS011;9179;50.968;3.134;2023-08-07T02:33:37;4.88;;;4.22;;
18104;SDS011;9179;50.968;3.134;2023-08-07T02:36:06;9.82;;;3.85;;
18104;SDS011;9179;50.968;3.134;2023-08-07T02:38:33;3.83;;;3.45;;
18104;SDS011;9179;50.968;3.134;2023-08-07T02:41:00;6.28;;;3.85;;
18104;SDS011;9179;50.968;3.134;2023-08-07T02:43:26;6.60;;;3.65;;
18104;SDS011;9179;50.968;3.134;2023-08-07T02:45:55;4.30;;;4.00;;
18104;SDS011;9179;50.968;3.134;2023-08-07T02:48:22;4.72;;;3.80;;
18104;SDS011;9179;50.968;3.134;2023-08-07T02:50:48;6.32;;;4.75;;
18104;SDS011;9179;50.968;3.134;2023-08-07T02:53:16;3.10;;;2.80;;
18104;SDS011;9179;50.968;3.134;2023-08-07T02:55:43;5.32;;;3.78;;
18104;SDS011;9179;50.968;3.134;2023-08-07T02:58:10;5.63;;;3.45;;
18104;SDS011;9179;50.968;3.134;2023-08-07T03:00:37;7.28;;;4.03;;
18104;SDS011;9179;50.968;3.134;2023-08-07T03:03:05;6.20;;;4.28;;
18104;SDS011;9179;50.968;3.134;2023-08-07T03:05:32;7.05;;;4.53;;
18104;SDS011;9179;50.968;3.134;2023-08-07T03:07:59;4.05;;;3.50;;
18104;SDS011;9179;50.968;3.134;2023-08-07T03:10:26;5.65;;;4.22;;
18104;SDS011;9179;50.968;3.134;2023-08-07T03:12:53;5.22;;;3.40;;
18104;SDS011;9179;50.968;3.134;2023-08-07T03:15:20;4.45;;;4.05;;
18104;SDS011;9179;50.968;3.134;2023-08-07T03:17:47;4.55;;;3.40;;
18104;SDS011;9179;50.968;3.134;2023-08-07T03:20:15;4.45;;;4.05;;
18104;SDS011;9179;50.968;3.134;2023-08-07T03:22:42;4.88;;;3.85;;
18104;SDS011;9179;50.968;3.134;2023-08-07T03:25:09;5.18;;;4.22;;
18104;SDS011;9179;50.968;3.134;2023-08-07T03:27:36;5.95;;;3.78;;
18104;SDS011;9179;50.968;3.134;2023-08-07T03:30:03;5.50;;;3.90;;
18104;SDS011;9179;50.968;3.134;2023-08-07T03:32:31;4.13;;;3.83;;
18104;SDS011;9179;50.968;3.134;2023-08-07T03:34:57;5.07;;;4.07;;
18104;SDS011;9179;50.968;3.134;2023-08-07T03:37:26;5.03;;;4.18;;
18104;SDS011;9179;50.968;3.134;2023-08-07T03:39:52;6.20;;;4.43;;
18104;SDS011;9179;50.968;3.134;2023-08-07T03:42:19;4.82;;;4.10;;
18104;SDS011;9179;50.968;3.134;2023-08-07T03:44:46;6.13;;;4.20;;
18104;SDS011;9179;50.968;3.134;2023-08-07T03:47:13;4.95;;;4.22;;
18104;SDS011;9179;50.968;3.134;2023-08-07T03:49:40;5.95;;;3.85;;
18104;SDS011;9179;50.968;3.134;2023-08-07T03:52:07;4.38;;;3.92;;
18104;SDS011;9179;50.968;3.134;2023-08-07T03:54:35;5.18;;;4.55;;
18104;SDS011;9179;50.968;3.134;2023-08-07T03:57:02;4.60;;;4.18;;
18104;SDS011;9179;50.968;3.134;2023-08-07T03:59:29;5.15;;;4.65;;
18104;SDS011;9179;50.968;3.134;2023-08-07T04:01:56;6.40;;;4.65;;
18104;SDS011;9179;50.968;3.134;2023-08-07T04:04:23;9.43;;;5.63;;
18104;SDS011;9179;50.968;3.134;2023-08-07T04:06:50;7.47;;;5.88;;
18104;SDS011;9179;50.968;3.134;2023-08-07T04:09:17;7.30;;;5.60;;
18104;SDS011;9179;50.968;3.134;2023-08-07T04:11:45;7.78;;;5.78;;
18104;SDS011;9179;50.968;3.134;2023-08-07T04:14:12;6.72;;;6.00;;
18104;SDS011;9179;50.968;3.134;2023-08-07T04:16:39;6.80;;;5.88;;
18104;SDS011;9179;50.968;3.134;2023-08-07T04:19:06;6.32;;;5.78;;
18104;SDS011;9179;50.968;3.134;2023-08-07T04:21:33;8.48;;;5.38;;
18104;SDS011;9179;50.968;3.134;2023-08-07T04:24:00;6.30;;;5.63;;
18104;SDS011;9179;50.968;3.134;2023-08-07T04:26:33;8.45;;;6.05;;
18104;SDS011;9179;50.968;3.134;2023-08-07T04:29:01;6.05;;;5.55;;
18104;SDS011;9179;50.968;3.134;2023-08-07T04:31:29;6.43;;;5.43;;
18104;SDS011;9179;50.968;3.134;2023-08-07T04:33:56;6.72;;;5.90;;
18104;SDS011;9179;50.968;3.134;2023-08-07T04:36:23;6.18;;;5.63;;
18104;SDS011;9179;50.968;3.134;2023-08-07T04:38:50;8.48;;;6.47;;
18104;SDS011;9179;50.968;3.134;2023-08-07T04:41:17;7.05;;;5.68;;
18104;SDS011;9179;50.968;3.134;2023-08-07T04:43:44;6.40;;;5.22;;
18104;SDS011;9179;50.968;3.134;2023-08-07T04:46:14;5.63;;;5.15;;
18104;SDS011;9179;50.968;3.134;2023-08-07T04:48:41;5.03;;;4.57;;
18104;SDS011;9179;50.968;3.134;2023-08-07T04:51:08;15.38;;;7.70;;
18104;SDS011;9179;50.968;3.134;2023-08-07T04:53:34;6.80;;;5.40;;
18104;SDS011;9179;50.968;3.134;2023-08-07T04:56:02;6.28;;;4.78;;
18104;SDS011;9179;50.968;3.134;2023-08-07T04:58:29;8.93;;;5.20;;
18104;SDS011;9179;50.968;3.134;2023-08-07T05:00:56;5.88;;;5.38;;
18104;SDS011;9179;50.968;3.134;2023-08-07T05:03:24;6.75;;;4.88;;
18104;SDS011;9179;50.968;3.134;2023-08-07T05:05:57;5.82;;;5.30;;
18104;SDS011;9179;50.968;3.134;2023-08-07T05:08:24;6.57;;;4.68;;
18104;SDS011;9179;50.968;3.134;2023-08-07T05:10:52;5.68;;;4.10;;
18104;SDS011;9179;50.968;3.134;2023-08-07T05:13:18;4.45;;;4.05;;
18104;SDS011;9179;50.968;3.134;2023-08-07T05:15:46;4.90;;;3.80;;
18104;SDS011;9179;50.968;3.134;2023-08-07T05:18:14;4.05;;;3.70;;
18104;SDS011;9179;50.968;3.134;2023-08-07T05:20:42;4.45;;;4.05;;
18104;SDS011;9179;50.968;3.134;2023-08-07T05:23:09;5.63;;;3.85;;
18104;SDS011;9179;50.968;3.134;2023-08-07T05:25:36;4.55;;;4.15;;
18104;SDS011;9179;50.968;3.134;2023-08-07T05:28:04;3.97;;;3.67;;
18104;SDS011;9179;50.968;3.134;2023-08-07T05:30:31;4.45;;;3.30;;
18104;SDS011;9179;50.968;3.134;2023-08-07T05:32:58;4.28;;;3.88;;
18104;SDS011;9179;50.968;3.134;2023-08-07T05:35:25;3.78;;;3.35;;
18104;SDS011;9179;50.968;3.134;2023-08-07T05:37:53;4.90;;;3.92;;
18104;SDS011;9179;50.968;3.134;2023-08-07T05:40:20;3.90;;;3.50;;
18104;SDS011;9179;50.968;3.134;2023-08-07T05:42:47;3.97;;;3.60;;
18104;SDS011;9179;50.968;3.134;2023-08-07T05:45:14;4.38;;;3.70;;
18104;SDS011;9179;50.968;3.134;2023-08-07T05:47:41;4.47;;;3.25;;
18104;SDS011;9179;50.968;3.134;2023-08-07T05:50:08;3.33;;;3.00;;
18104;SDS011;9179;50.968;3.134;2023-08-07T05:52:35;5.10;;;4.10;;
18104;SDS011;9179;50.968;3.134;2023-08-07T05:55:04;4.22;;;3.08;;
18104;SDS011;9179;50.968;3.134;2023-08-07T05:57:33;4.78;;;2.90;;
18104;SDS011;9179;50.968;3.134;2023-08-07T06:00:00;3.33;;;3.03;;
18104;SDS011;9179;50.968;3.134;2023-08-07T06:02:27;3.83;;;3.28;;
18104;SDS011;9179;50.968;3.134;2023-08-07T06:04:54;4.72;;;3.38;;
18104;SDS011;9179;50.968;3.134;2023-08-07T06:07:21;6.85;;;3.58;;
18104;SDS011;9179;50.968;3.134;2023-08-07T06:09:48;3.55;;;3.25;;
18104;SDS011;9179;50.968;3.134;2023-08-07T06:12:16;5.32;;;3.35;;
18104;SDS011;9179;50.968;3.134;2023-08-07T06:14:43;3.30;;;3.10;;
18104;SDS011;9179;50.968;3.134;2023-08-07T06:17:10;3.83;;;2.85;;
18104;SDS011;9179;50.968;3.134;2023-08-07T06:19:37;3.80;;;3.13;;
18104;SDS011;9179;50.968;3.134;2023-08-07T06:22:04;3.95;;;3.40;;
18104;SDS011;9179;50.968;3.134;2023-08-07T06:24:31;3.92;;;2.95;;
18104;SDS011;9179;50.968;3.134;2023-08-07T06:26:58;3.50;;;3.20;;
18104;SDS011;9179;50.968;3.134;2023-08-07T06:29:26;3.60;;;2.92;;
18104;SDS011;9179;50.968;3.134;2023-08-07T06:31:53;4.47;;;3.17;;
18104;SDS011;9179;50.968;3.134;2023-08-07T06:34:20;6.55;;;3.20;;
18104;SDS011;9179;50.968;3.134;2023-08-07T06:36:47;4.53;;;3.42;;
18104;SDS011;9179;50.968;3.134;2023-08-07T06:39:14;5.03;;;3.30;;
18104;SDS011;9179;50.968;3.134;2023-08-07T06:41:41;4.43;;;3.05;;
18104;SDS011;9179;50.968;3.134;2023-08-07T06:44:08;3.90;;;3.20;;
18104;SDS011;9179;50.968;3.134;2023-08-07T06:46:36;4.05;;;3.20;;
18104;SDS011;9179;50.968;3.134;2023-08-07T06:49:04;4.75;;;3.35;;
18104;SDS011;9179;50.968;3.134;2023-08-07T06:51:30;3.10;;;2.63;;
18104;SDS011;9179;50.968;3.134;2023-08-07T06:53:57;3.80;;;2.80;;
18104;SDS011;9179;50.968;3.134;2023-08-07T06:56:24;2.83;;;2.63;;
18104;SDS011;9179;50.968;3.134;2023-08-07T06:58:51;3.47;;;3.17;;
18104;SDS011;9179;50.968;3.134;2023-08-07T07:01:18;7.18;;;2.97;;
18104;SDS011;9179;50.968;3.134;2023-08-07T07:03:46;3.67;;;2.83;;
18104;SDS011;9179;50.968;3.134;2023-08-07T07:06:17;2.95;;;2.17;;
18104;SDS011;9179;50.968;3.134;2023-08-07T07:08:45;3.42;;;3.13;;
18104;SDS011;9179;50.968;3.134;2023-08-07T07:11:12;3.08;;;2.88;;
18104;SDS011;9179;50.968;3.134;2023-08-07T07:13:39;4.32;;;3.00;;
18104;SDS011;9179;50.968;3.134;2023-08-07T07:16:06;3.92;;;2.75;;
18104;SDS011;9179;50.968;3.134;2023-08-07T07:18:33;2.85;;;2.00;;
18104;SDS011;9179;50.968;3.134;2023-08-07T07:21:01;3.67;;;2.60;;
18104;SDS011;9179;50.968;3.134;2023-08-07T07:23:28;3.80;;;3.17;;
18104;SDS011;9179;50.968;3.134;2023-08-07T07:25:55;4.80;;;2.72;;
18104;SDS011;9179;50.968;3.134;2023-08-07T07:28:23;4.47;;;2.30;;
18104;SDS011;9179;50.968;3.134;2023-08-07T07:30:50;3.15;;;2.40;;
18104;SDS011;9179;50.968;3.134;2023-08-07T07:33:17;2.45;;;2.13;;
18104;SDS011;9179;50.968;3.134;2023-08-07T07:35:44;3.65;;;2.40;;
18104;SDS011;9179;50.968;3.134;2023-08-07T07:38:12;3.67;;;2.30;;
18104;SDS011;9179;50.968;3.134;2023-08-07T07:40:40;1.90;;;1.80;;
18104;SDS011;9179;50.968;3.134;2023-08-07T07:43:07;2.83;;;1.88;;
18104;SDS011;9179;50.968;3.134;2023-08-07T07:45:34;2.58;;;2.10;;
18104;SDS011;9179;50.968;3.134;2023-08-07T07:48:01;2.45;;;1.92;;
18104;SDS011;9179;50.968;3.134;2023-08-07T07:50:28;1.80;;;1.70;;
18104;SDS011;9179;50.968;3.134;2023-08-07T07:52:55;2.00;;;1.45;;
18104;SDS011;9179;50.968;3.134;2023-08-07T07:55:24;2.78;;;1.58;;
18104;SDS011;9179;50.968;3.134;2023-08-07T07:57:51;1.80;;;1.70;;
18104;SDS011;9179;50.968;3.134;2023-08-07T08:00:18;1.75;;;1.52;;
18104;SDS011;9179;50.968;3.134;2023-08-07T08:02:47;1.83;;;1.50;;
18104;SDS011;9179;50.968;3.134;2023-08-07T08:05:14;3.15;;;1.65;;
18104;SDS011;9179;50.968;3.134;2023-08-07T08:07:41;1.73;;;1.58;;
18104;SDS011;9179;50.968;3.134;2023-08-07T08:10:09;1.95;;;1.75;;
18104;SDS011;9179;50.968;3.134;2023-08-07T08:12:38;1.90;;;1.50;;
18104;SDS011;9179;50.968;3.134;2023-08-07T08:15:05;3.25;;;1.58;;
18104;SDS011;9179;50.968;3.134;2023-08-07T08:17:33;2.58;;;1.90;;
18104;SDS011;9179;50.968;3.134;2023-08-07T08:20:00;2.03;;;1.80;;
18104;SDS011;9179;50.968;3.134;2023-08-07T08:22:27;1.60;;;1.50;;
18104;SDS011;9179;50.968;3.134;2023-08-07T08:24:54;1.85;;;1.70;;
18104;SDS011;9179;50.968;3.134;2023-08-07T08:27:20;2.15;;;1.90;;
18104;SDS011;9179;50.968;3.134;2023-08-07T08:29:49;1.75;;;1.20;;
18104;SDS011;9179;50.968;3.134;2023-08-07T08:32:16;1.65;;;1.55;;
18104;SDS011;9179;50.968;3.134;2023-08-07T08:34:43;1.40;;;1.30;;
18104;SDS011;9179;50.968;3.134;2023-08-07T08:37:10;1.98;;;1.50;;
18104;SDS011;9179;50.968;3.134;2023-08-07T08:39:37;1.63;;;1.52;;
18104;SDS011;9179;50.968;3.134;2023-08-07T08:42:05;2.35;;;1.33;;
18104;SDS011;9179;50.968;3.134;2023-08-07T08:44:32;2.38;;;1.20;;
18104;SDS011;9179;50.968;3.134;2023-08-07T08:47:04;2.30;;;1.38;;
18104;SDS011;9179;50.968;3.134;2023-08-07T08:49:33;1.40;;;1.30;;
18104;SDS011;9179;50.968;3.134;2023-08-07T08:52:03;1.60;;;1.50;;
18104;SDS011;9179;50.968;3.134;2023-08-07T08:54:31;1.20;;;1.10;;
18104;SDS011;9179;50.968;3.134;2023-08-07T08:56:59;1.30;;;1.20;;
18104;SDS011;9179;50.968;3.134;2023-08-07T08:59:26;1.83;;;1.50;;
18104;SDS011;9179;50.968;3.134;2023-08-07T09:01:53;1.25;;;1.13;;
18104;SDS011;9179;50.968;3.134;2023-08-07T09:04:22;1.85;;;1.75;;
18104;SDS011;9179;50.968;3.134;2023-08-07T09:06:49;1.30;;;1.20;;
18104;SDS011;9179;50.968;3.134;2023-08-07T09:09:16;1.80;;;1.70;;
18104;SDS011;9179;50.968;3.134;2023-08-07T09:11:46;1.48;;;1.38;;
18104;SDS011;9179;50.968;3.134;2023-08-07T09:14:15;2.33;;;1.35;;
18104;SDS011;9179;50.968;3.134;2023-08-07T09:16:43;1.38;;;1.27;;
18104;SDS011;9179;50.968;3.134;2023-08-07T09:19:11;1.50;;;1.40;;
18104;SDS011;9179;50.968;3.134;2023-08-07T09:21:40;2.92;;;1.52;;
18104;SDS011;9179;50.968;3.134;2023-08-07T09:24:07;1.48;;;1.20;;
18104;SDS011;9179;50.968;3.134;2023-08-07T09:26:34;1.35;;;1.20;;
18104;SDS011;9179;50.968;3.134;2023-08-07T09:29:01;1.40;;;1.30;;
18104;SDS011;9179;50.968;3.134;2023-08-07T09:31:29;1.88;;;1.55;;
18104;SDS011;9179;50.968;3.134;2023-08-07T09:34:00;1.40;;;1.27;;
18104;SDS011;9179;50.968;3.134;2023-08-07T09:36:29;2.30;;;1.85;;
18104;SDS011;9179;50.968;3.134;2023-08-07T09:39:01;1.30;;;1.25;;
18104;SDS011;9179;50.968;3.134;2023-08-07T09:41:29;1.73;;;1.00;;
18104;SDS011;9179;50.968;3.134;2023-08-07T09:43:57;1.60;;;1.13;;
18104;SDS011;9179;50.968;3.134;2023-08-07T09:46:25;1.27;;;1.00;;
18104;SDS011;9179;50.968;3.134;2023-08-07T09:48:52;1.20;;;1.10;;
18104;SDS011;9179;50.968;3.134;2023-08-07T09:51:24;1.67;;;1.40;;
18104;SDS011;9179;50.968;3.134;2023-08-07T09:53:51;3.15;;;1.52;;
18104;SDS011;9179;50.968;3.134;2023-08-07T09:56:22;2.15;;;1.25;;
18104;SDS011;9179;50.968;3.134;2023-08-07T09:58:51;1.35;;;1.13;;
18104;SDS011;9179;50.968;3.134;2023-08-07T10:01:20;1.30;;;1.20;;
18104;SDS011;9179;50.968;3.134;2023-08-07T10:03:47;1.73;;;1.30;;
18104;SDS011;9179;50.968;3.134;2023-08-07T10:06:14;1.20;;;1.10;;
18104;SDS011;9179;50.968;3.134;2023-08-07T10:08:41;1.10;;;1.00;;
18104;SDS011;9179;50.968;3.134;2023-08-07T10:11:09;1.65;;;1.52;;
18104;SDS011;9179;50.968;3.134;2023-08-07T10:13:37;1.98;;;1.75;;
18104;SDS011;9179;50.968;3.134;2023-08-07T10:16:05;1.95;;;1.38;;
18104;SDS011;9179;50.968;3.134;2023-08-07T10:18:32;1.10;;;1.10;;
18104;SDS011;9179;50.968;3.134;2023-08-07T10:21:00;1.67;;;1.13;;
18104;SDS011;9179;50.968;3.134;2023-08-07T10:23:28;1.83;;;1.10;;
18104;SDS011;9179;50.968;3.134;2023-08-07T10:25:55;1.52;;;1.17;;
18104;SDS011;9179;50.968;3.134;2023-08-07T10:28:23;1.17;;;0.90;;
18104;SDS011;9179;50.968;3.134;2023-08-07T10:30:53;0.98;;;0.98;;
18104;SDS011;9179;50.968;3.134;2023-08-07T10:33:20;1.10;;;1.10;;
18104;SDS011;9179;50.968;3.134;2023-08-07T10:35:49;1.33;;;1.10;;
18104;SDS011;9179;50.968;3.134;2023-08-07T10:38:19;1.20;;;1.10;;
18104;SDS011;9179;50.968;3.134;2023-08-07T10:40:58;1.83;;;1.20;;
18104;SDS011;9179;50.968;3.134;2023-08-07T10:43:25;1.42;;;1.33;;
18104;SDS011;9179;50.968;3.134;2023-08-07T10:45:55;1.17;;;1.00;;
18104;SDS011;9179;50.968;3.134;2023-08-07T10:48:29;1.00;;;0.98;;
18104;SDS011;9179;50.968;3.134;2023-08-07T10:51:03;1.67;;;0.90;;
18104;SDS011;9179;50.968;3.134;2023-08-07T10:53:31;0.98;;;0.98;;
18104;SDS011;9179;50.968;3.134;2023-08-07T10:56:01;1.95;;;1.08;;
18104;SDS011;9179;50.968;3.134;2023-08-07T10:58:29;1.67;;;1.33;;
18104;SDS011;9179;50.968;3.134;2023-08-07T11:01:20;1.52;;;1.10;;
18104;SDS011;9179;50.968;3.134;2023-08-07T11:03:49;2.47;;;1.42;;
18104;SDS011;9179;50.968;3.134;2023-08-07T11:06:17;2.28;;;1.42;;
18104;SDS011;9179;50.968;3.134;2023-08-07T11:08:44;1.10;;;1.10;;
18104;SDS011;9179;50.968;3.134;2023-08-07T11:11:11;1.75;;;0.90;;
18104;SDS011;9179;50.968;3.134;2023-08-07T11:13:38;1.17;;;1.08;;
18104;SDS011;9179;50.968;3.134;2023-08-07T11:16:05;2.25;;;1.08;;
18104;SDS011;9179;50.968;3.134;2023-08-07T11:18:33;1.08;;;0.98;;
18104;SDS011;9179;50.968;3.134;2023-08-07T11:21:03;1.33;;;0.77;;
18104;SDS011;9179;50.968;3.134;2023-08-07T11:23:30;1.25;;;0.98;;
18104;SDS011;9179;50.968;3.134;2023-08-07T11:25:57;2.63;;;0.90;;
18104;SDS011;9179;50.968;3.134;2023-08-07T11:28:24;0.90;;;0.90;;
18104;SDS011;9179;50.968;3.134;2023-08-07T11:30:51;1.08;;;0.98;;
18104;SDS011;9179;50.968;3.134;2023-08-07T11:33:20;0.77;;;0.77;;
18104;SDS011;9179;50.968;3.134;2023-08-07T11:35:49;0.77;;;0.77;;
18104;SDS011;9179;50.968;3.134;2023-08-07T11:38:28;1.73;;;0.98;;
18104;SDS011;9179;50.968;3.134;2023-08-07T11:40:56;1.00;;;0.90;;
18104;SDS011;9179;50.968;3.134;2023-08-07T11:43:26;1.52;;;0.88;;
18104;SDS011;9179;50.968;3.134;2023-08-07T11:45:54;1.55;;;1.17;;
18104;SDS011;9179;50.968;3.134;2023-08-07T11:48:23;1.33;;;1.20;;
18104;SDS011;9179;50.968;3.134;2023-08-07T11:50:52;2.38;;;1.10;;
18104;SDS011;9179;50.968;3.134;2023-08-07T11:53:20;1.25;;;1.08;;
18104;SDS011;9179;50.968;3.134;2023-08-07T11:55:51;1.02;;;1.02;;
18104;SDS011;9179;50.968;3.134;2023-08-07T11:58:20;1.23;;;1.13;;
18104;SDS011;9179;50.968;3.134;2023-08-07T12:00:47;1.83;;;1.48;;
18104;SDS011;9179;50.968;3.134;2023-08-07T12:06:05;1.30;;;1.20;;
18104;SDS011;9179;50.968;3.134;2023-08-07T12:08:33;0.95;;;0.90;;
18104;SDS011;9179;50.968;3.134;2023-08-07T12:11:01;1.80;;;1.10;;
18104;SDS011;9179;50.968;3.134;2023-08-07T12:13:29;1.52;;;1.05;;
18104;SDS011;9179;50.968;3.134;2023-08-07T12:16:00;3.40;;;1.15;;
18104;SDS011;9179;50.968;3.134;2023-08-07T12:18:27;0.75;;;0.75;;
18104;SDS011;9179;50.968;3.134;2023-08-07T12:20:58;0.90;;;0.80;;
18104;SDS011;9179;50.968;3.134;2023-08-07T12:23:27;0.98;;;0.88;;
18104;SDS011;9179;50.968;3.134;2023-08-07T12:25:54;0.95;;;0.95;;
18104;SDS011;9179;50.968;3.134;2023-08-07T12:28:21;1.50;;;1.40;;
18104;SDS011;9179;50.968;3.134;2023-08-07T12:30:48;2.35;;;1.30;;
18104;SDS011;9179;50.968;3.134;2023-08-07T12:33:17;0.98;;;0.98;;
18104;SDS011;9179;50.968;3.134;2023-08-07T12:35:44;1.40;;;1.08;;
18104;SDS011;9179;50.968;3.134;2023-08-07T12:38:11;1.52;;;1.17;;
18104;SDS011;9179;50.968;3.134;2023-08-07T12:40:41;1.00;;;1.00;;
18104;SDS011;9179;50.968;3.134;2023-08-07T12:43:08;1.13;;;1.00;;
18104;SDS011;9179;50.968;3.134;2023-08-07T12:45:35;1.20;;;0.85;;
18104;SDS011;9179;50.968;3.134;2023-08-07T12:48:02;1.08;;;0.80;;
18104;SDS011;9179;50.968;3.134;2023-08-07T12:50:29;1.50;;;1.27;;
18104;SDS011;9179;50.968;3.134;2023-08-07T12:52:56;1.95;;;0.90;;
18104;SDS011;9179;50.968;3.134;2023-08-07T12:55:23;1.33;;;0.88;;
18104;SDS011;9179;50.968;3.134;2023-08-07T12:57:53;1.83;;;0.80;;
18104;SDS011;9179;50.968;3.134;2023-08-07T13:00:20;1.13;;;0.95;;
18104;SDS011;9179;50.968;3.134;2023-08-07T13:02:48;1.98;;;1.10;;
18104;SDS011;9179;50.968;3.134;2023-08-07T13:05:16;1.08;;;0.93;;
18104;SDS011;9179;50.968;3.134;2023-08-07T13:07:44;1.20;;;1.10;;
18104;SDS011;9179;50.968;3.134;2023-08-07T13:10:12;0.88;;;0.82;;
18104;SDS011;9179;50.968;3.134;2023-08-07T13:12:41;1.23;;;1.08;;
18104;SDS011;9179;50.968;3.134;2023-08-07T13:15:11;2.47;;;1.20;;
18104;SDS011;9179;50.968;3.134;2023-08-07T13:17:39;0.93;;;0.93;;
18104;SDS011;9179;50.968;3.134;2023-08-07T13:20:07;1.20;;;1.10;;
18104;SDS011;9179;50.968;3.134;2023-08-07T13:22:34;1.50;;;1.40;;
18104;SDS011;9179;50.968;3.134;2023-08-07T13:25:01;1.33;;;1.23;;
18104;SDS011;9179;50.968;3.134;2023-08-07T13:27:29;2.05;;;1.77;;
18104;SDS011;9179;50.968;3.134;2023-08-07T13:29:56;3.20;;;1.95;;
18104;SDS011;9179;50.968;3.134;2023-08-07T13:32:24;4.10;;;1.90;;
18104;SDS011;9179;50.968;3.134;2023-08-07T13:34:51;2.85;;;1.85;;
18104;SDS011;9179;50.968;3.134;2023-08-07T13:37:18;2.17;;;1.98;;
18104;SDS011;9179;50.968;3.134;2023-08-07T13:39:45;3.35;;;1.92;;
18104;SDS011;9179;50.968;3.134;2023-08-07T13:42:14;2.67;;;1.88;;
18104;SDS011;9179;50.968;3.134;2023-08-07T13:44:41;3.17;;;1.92;;
18104;SDS011;9179;50.968;3.134;2023-08-07T13:47:08;2.33;;;1.88;;
18104;SDS011;9179;50.968;3.134;2023-08-07T13:49:36;1.92;;;1.63;;
18104;SDS011;9179;50.968;3.134;2023-08-07T13:52:04;2.83;;;2.10;;
18104;SDS011;9179;50.968;3.134;2023-08-07T13:54:31;1.40;;;1.30;;
18104;SDS011;9179;50.968;3.134;2023-08-07T13:56:58;2.28;;;1.30;;
18104;SDS011;9179;50.968;3.134;2023-08-07T13:59:25;2.45;;;1.50;;
18104;SDS011;9179;50.968;3.134;2023-08-07T14:01:51;1.63;;;1.52;;
18104;SDS011;9179;50.968;3.134;2023-08-07T14:04:19;1.13;;;1.10;;
18104;SDS011;9179;50.968;3.134;2023-08-07T14:06:48;1.70;;;1.60;;
18104;SDS011;9179;50.968;3.134;2023-08-07T14:09:15;1.83;;;1.55;;
18104;SDS011;9179;50.968;3.134;2023-08-07T14:11:43;2.83;;;1.63;;
18104;SDS011;9179;50.968;3.134;2023-08-07T14:14:10;2.28;;;1.75;;
18104;SDS011;9179;50.968;3.134;2023-08-07T14:16:37;2.03;;;1.33;;
18104;SDS011;9179;50.968;3.134;2023-08-07T14:19:04;1.58;;;1.48;;
18104;SDS011;9179;50.968;3.134;2023-08-07T14:21:30;2.40;;;1.75;;
18104;SDS011;9179;50.968;3.134;2023-08-07T14:23:59;1.58;;;1.48;;
18104;SDS011;9179;50.968;3.134;2023-08-07T14:26:26;1.77;;;1.67;;
18104;SDS011;9179;50.968;3.134;2023-08-07T14:28:53;2.58;;;1.52;;
18104;SDS011;9179;50.968;3.134;2023-08-07T14:31:20;1.50;;;1.40;;
18104;SDS011;9179;50.968;3.134;2023-08-07T14:33:46;2.08;;;1.65;;
18104;SDS011;9179;50.968;3.134;2023-08-07T14:36:13;3.72;;;1.67;;
18104;SDS011;9179;50.968;3.134;2023-08-07T14:38:40;2.17;;;1.85;;
18104;SDS011;9179;50.968;3.134;2023-08-07T14:41:09;1.77;;;1.65;;
18104;SDS011;9179;50.968;3.134;2023-08-07T14:43:35;2.08;;;1.75;;
18104;SDS011;9179;50.968;3.134;2023-08-07T14:46:02;1.63;;;1.40;;
18104;SDS011;9179;50.968;3.134;2023-08-07T14:48:29;2.35;;;1.73;;
18104;SDS011;9179;50.968;3.134;2023-08-07T14:50:56;1.90;;;1.30;;
18104;SDS011;9179;50.968;3.134;2023-08-07T14:53:23;2.13;;;1.30;;
18104;SDS011;9179;50.968;3.134;2023-08-07T14:55:52;4.15;;;1.80;;
18104;SDS011;9179;50.968;3.134;2023-08-07T14:58:20;1.38;;;1.27;;
18104;SDS011;9179;50.968;3.134;2023-08-07T15:00:47;1.50;;;1.40;;
18104;SDS011;9179;50.968;3.134;2023-08-07T15:03:15;2.08;;;1.40;;
18104;SDS011;9179;50.968;3.134;2023-08-07T15:05:42;1.80;;;1.20;;